Time;durP1;ratioP1;P1;durP2;ratioP2;P2;SDS_P1;SDS_P2;PMS_P1;PMS_P2;Temp;Humidity;BMP_temperature;BMP_pressure;BME280_temperature;BME280_humidity;BME280_pressure;Samples;Min_cycle;Max_cycle;Signal;HPM_P1;HPM_P2
2022/05/21 00:02:15;;;;;;;6.53;4.80;;;;;;;19.96;100.00;96644.19;5056901;28;20202;-91
2022/05/21 00:04:42;;;;;;;6.32;4.90;;;;;;;20.01;100.00;96641.41;5036259;28;20210;-92
2022/05/21 00:07:11;;;;;;;7.22;4.78;;;;;;;20.05;100.00;96650.72;5047641;28;20229;-91
2022/05/21 00:09:40;;;;;;;9.90;4.57;;;;;;;19.98;100.00;96636.50;5026383;28;20211;-91
2022/05/21 00:12:08;;;;;;;8.25;4.78;;;;;;;19.89;100.00;96647.25;5031104;28;20215;-92
2022/05/21 00:14:38;;;;;;;11.70;4.78;;;;;;;19.82;100.00;96660.41;5031023;28;20208;-92
2022/05/21 00:17:06;;;;;;;6.55;4.38;;;;;;;19.82;100.00;96659.63;5049218;28;20229;-92
2022/05/21 00:19:33;;;;;;;9.77;3.97;;;;;;;19.87;100.00;96665.88;5037036;28;20206;-91
2022/05/21 00:22:00;;;;;;;6.03;4.68;;;;;;;19.95;100.00;96659.00;5025096;28;20210;-91
2022/05/21 00:24:28;;;;;;;10.43;4.43;;;;;;;19.92;100.00;96663.09;5028547;28;20209;-91
2022/05/21 00:26:57;;;;;;;6.88;4.15;;;;;;;19.96;100.00;96655.16;5025797;28;20245;-92
2022/05/21 00:29:26;;;;;;;10.32;5.28;;;;;;;19.91;100.00;96652.41;5044974;28;20207;-92
2022/05/21 00:31:54;;;;;;;8.30;4.72;;;;;;;19.86;100.00;96650.53;5023193;28;20203;-91
2022/05/21 00:34:21;;;;;;;8.82;4.70;;;;;;;19.88;100.00;96664.78;5048729;28;20266;-91
2022/05/21 00:36:50;;;;;;;7.93;4.38;;;;;;;19.89;100.00;96665.63;5017999;28;20215;-91
2022/05/21 00:39:18;;;;;;;6.85;4.53;;;;;;;19.86;100.00;96666.16;5028708;28;20207;-91
2022/05/21 00:41:46;;;;;;;6.43;4.78;;;;;;;19.92;100.00;96689.69;5028257;28;20207;-92
2022/05/21 00:44:15;;;;;;;7.80;4.65;;;;;;;19.93;100.00;96694.06;5026043;28;20273;-92
2022/05/21 00:46:45;;;;;;;12.57;4.63;;;;;;;19.93;100.00;96692.16;5044989;28;20241;-91
2022/05/21 00:49:16;;;;;;;7.97;4.28;;;;;;;19.91;100.00;96696.28;5051134;28;20242;-91
2022/05/21 00:51:49;;;;;;;7.80;4.40;;;;;;;19.88;100.00;96694.94;5032471;28;20305;-92
2022/05/21 00:54:19;;;;;;;7.70;4.25;;;;;;;19.89;100.00;96709.47;5029962;28;20210;-91
2022/05/21 00:56:54;;;;;;;7.45;5.50;;;;;;;19.91;100.00;96710.78;5023216;28;20202;-90
2022/05/21 01:02:09;;;;;;;9.60;4.65;;;;;;;19.94;100.00;96745.88;5026587;28;20210;-91
2022/05/21 01:04:38;;;;;;;11.27;4.68;;;;;;;19.91;100.00;96727.25;5047619;28;20210;-91
2022/05/21 01:07:07;;;;;;;9.27;4.35;;;;;;;19.76;100.00;96715.53;5039674;28;20226;-91
2022/05/21 01:09:35;;;;;;;9.43;4.95;;;;;;;19.70;100.00;96727.59;5027531;28;20199;-90
2022/05/21 01:12:04;;;;;;;9.00;4.82;;;;;;;19.58;100.00;96723.25;5031809;28;20296;-91
2022/05/21 01:14:33;;;;;;;14.77;4.55;;;;;;;19.34;100.00;96718.63;5028118;28;20239;-91
2022/05/21 01:17:01;;;;;;;10.77;4.77;;;;;;;19.23;100.00;96712.34;5037669;28;20223;-91
2022/05/21 01:19:28;;;;;;;10.27;4.93;;;;;;;19.08;100.00;96715.09;5025573;28;20209;-91
2022/05/21 01:21:56;;;;;;;11.00;4.83;;;;;;;19.28;100.00;96707.69;5029814;28;20286;-91
2022/05/21 01:24:25;;;;;;;8.23;4.60;;;;;;;19.43;100.00;96720.53;5044559;28;20211;-91
2022/05/21 01:26:52;;;;;;;6.47;4.40;;;;;;;19.43;100.00;96734.22;5027236;28;20222;-90
2022/05/21 01:29:25;;;;;;;7.57;4.53;;;;;;;19.42;100.00;96735.31;5040873;28;20230;-91
2022/05/21 01:31:54;;;;;;;9.43;4.77;;;;;;;19.44;100.00;96740.50;5029459;28;20211;-91
2022/05/21 01:34:23;;;;;;;6.47;4.50;;;;;;;19.48;100.00;96753.41;5027319;28;20203;-91
2022/05/21 01:36:50;;;;;;;8.77;5.00;;;;;;;19.17;100.00;96749.03;5028611;28;20207;-91
2022/05/21 01:39:18;;;;;;;8.90;5.13;;;;;;;18.95;100.00;96748.50;5053086;28;20437;-90
2022/05/21 01:41:50;;;;;;;8.80;5.10;;;;;;;18.76;100.00;96729.06;5030519;28;20315;-92
2022/05/21 01:47:02;;;;;;;10.47;5.23;;;;;;;18.70;100.00;96758.34;5025575;28;20308;-91
2022/05/21 01:49:30;;;;;;;9.40;5.33;;;;;;;18.81;100.00;96762.72;5026991;28;20231;-92
2022/05/21 01:51:57;;;;;;;8.33;5.20;;;;;;;18.73;100.00;96746.84;5034699;28;20210;-90
2022/05/21 01:54:25;;;;;;;6.20;5.10;;;;;;;18.71;100.00;96765.47;5026518;28;20242;-92
2022/05/21 01:56:53;;;;;;;11.03;5.60;;;;;;;18.61;100.00;96765.44;5020954;28;20198;-90
2022/05/21 01:59:21;;;;;;;9.10;4.87;;;;;;;18.59;100.00;96764.06;5040533;28;20241;-90
2022/05/21 02:01:48;;;;;;;10.03;4.97;;;;;;;18.66;100.00;96800.19;5028401;28;20221;-92
2022/05/21 02:04:16;;;;;;;11.33;4.50;;;;;;;18.71;100.00;96797.47;5027589;28;20213;-90
2022/05/21 02:06:43;;;;;;;8.30;4.83;;;;;;;18.74;100.00;96775.84;5023223;28;20227;-90
2022/05/21 02:09:11;;;;;;;11.10;5.50;;;;;;;18.76;100.00;96767.38;5035081;28;20211;-91
2022/05/21 02:11:39;;;;;;;7.60;4.17;;;;;;;18.69;100.00;96751.22;5044611;28;20276;-90
2022/05/21 02:14:09;;;;;;;8.23;5.10;;;;;;;18.66;100.00;96751.75;5025894;28;20199;-91
2022/05/21 02:16:37;;;;;;;9.73;5.40;;;;;;;18.66;100.00;96773.66;5043354;28;20234;-92
2022/05/21 02:19:06;;;;;;;10.63;5.37;;;;;;;18.46;100.00;96777.13;5024515;28;20207;-90
2022/05/21 02:21:36;;;;;;;7.30;4.93;;;;;;;18.38;100.00;96774.91;5023834;28;20207;-91
2022/05/21 02:24:03;;;;;;;9.27;5.13;;;;;;;18.39;100.00;96773.81;5019166;28;20198;-90
2022/05/21 02:26:34;;;;;;;10.03;5.33;;;;;;;18.37;100.00;96761.53;5022988;28;20227;-92
2022/05/21 02:29:02;;;;;;;6.77;4.60;;;;;;;18.38;100.00;96776.81;5021252;28;20207;-90
2022/05/21 02:31:31;;;;;;;12.83;5.53;;;;;;;18.32;100.00;96777.91;5020385;28;20290;-90
2022/05/21 02:33:58;;;;;;;8.83;4.80;;;;;;;18.35;100.00;96791.88;5029374;28;20212;-92
2022/05/21 02:41:51;;;;;;;7.63;5.23;;;;;;;18.37;100.00;96788.88;5043192;28;20210;-91
2022/05/21 02:44:19;;;;;;;12.27;4.70;;;;;;;18.38;100.00;96793.22;5034026;28;20212;-92
2022/05/21 02:46:49;;;;;;;8.00;5.60;;;;;;;18.46;100.00;96795.44;5020465;28;20233;-91
2022/05/21 02:49:17;;;;;;;6.43;5.20;;;;;;;18.54;100.00;96786.75;5025816;28;20235;-91
2022/05/21 02:51:45;;;;;;;10.17;4.80;;;;;;;18.45;100.00;96767.31;5029679;28;20211;-93
2022/05/21 02:54:14;;;;;;;12.40;5.23;;;;;;;18.51;100.00;96770.84;5026718;28;20234;-92
2022/05/21 02:56:45;;;;;;;12.53;4.73;;;;;;;18.61;100.00;96783.75;5041321;28;20205;-91
2022/05/21 02:59:12;;;;;;;9.87;4.80;;;;;;;18.65;100.00;96801.25;5024229;28;20210;-91
2022/05/21 03:01:40;;;;;;;7.27;4.57;;;;;;;18.66;100.00;96787.31;5023724;28;20218;-91
2022/05/21 03:04:08;;;;;;;11.47;5.30;;;;;;;18.60;100.00;96784.84;5039335;28;20310;-91
2022/05/21 03:06:36;;;;;;;11.93;5.27;;;;;;;18.59;100.00;96794.16;5021665;28;20314;-91
2022/05/21 03:11:50;;;;;;;9.03;4.80;;;;;;;18.51;100.00;96792.75;5015572;28;20306;-91
2022/05/21 03:14:18;;;;;;;7.47;4.93;;;;;;;18.45;100.00;96802.84;5022769;28;20203;-92
2022/05/21 03:16:45;;;;;;;7.50;4.70;;;;;;;18.44;100.00;96814.06;5025870;28;20227;-90
2022/05/21 03:19:15;;;;;;;7.90;5.20;;;;;;;18.45;100.00;96802.03;5025639;28;20258;-91
2022/05/21 03:21:42;;;;;;;7.33;4.90;;;;;;;18.42;100.00;96794.34;5023123;28;20309;-92
2022/05/21 03:24:11;;;;;;;9.10;5.50;;;;;;;18.25;100.00;96799.22;5018081;28;20260;-91
2022/05/21 03:26:40;;;;;;;11.50;5.70;;;;;;;18.23;100.00;96796.75;5026730;28;20222;-93
2022/05/21 03:29:08;;;;;;;11.17;5.60;;;;;;;18.32;100.00;96795.13;5027114;28;20294;-91
2022/05/21 03:31:35;;;;;;;7.60;5.73;;;;;;;18.34;100.00;96800.34;5027672;28;20210;-92
2022/05/21 03:34:03;;;;;;;6.80;5.27;;;;;;;18.34;100.00;96803.06;5030049;28;20215;-92
2022/05/21 03:36:32;;;;;;;13.63;5.57;;;;;;;18.25;100.00;96804.69;5046934;28;20207;-91
2022/05/21 03:39:03;;;;;;;10.70;4.83;;;;;;;18.27;100.00;96835.31;5035209;28;20271;-90
2022/05/21 03:41:31;;;;;;;7.87;5.10;;;;;;;18.33;100.00;96840.53;5040245;28;20214;-90
2022/05/21 03:44:00;;;;;;;11.50;5.80;;;;;;;18.35;100.00;96812.91;5037701;28;20211;-91
2022/05/21 03:46:28;;;;;;;9.57;5.07;;;;;;;18.41;100.00;96803.63;5045240;28;20247;-90
2022/05/21 03:48:56;;;;;;;7.17;5.07;;;;;;;18.35;100.00;96804.72;5028096;28;20317;-92
2022/05/21 03:51:23;;;;;;;9.23;5.57;;;;;;;18.25;100.00;96810.16;5027320;28;20275;-89
2022/05/21 03:53:52;;;;;;;12.63;6.20;;;;;;;18.21;100.00;96825.44;5026884;28;20214;-91
2022/05/21 03:56:19;;;;;;;8.47;5.30;;;;;;;18.17;100.00;96819.69;5042599;28;20203;-91
2022/05/21 03:58:48;;;;;;;6.97;5.27;;;;;;;18.09;100.00;96801.88;5027537;28;20270;-90
2022/05/21 04:01:15;;;;;;;8.73;5.60;;;;;;;18.05;100.00;96806.22;5039561;28;20210;-90
2022/05/21 04:03:43;;;;;;;11.67;5.03;;;;;;;18.10;100.00;96800.81;5027914;28;20253;-89
2022/05/21 04:06:11;;;;;;;10.03;5.93;;;;;;;18.20;100.00;96816.44;5028990;28;20288;-91
2022/05/21 04:08:38;;;;;;;14.23;6.30;;;;;;;18.27;100.00;96825.19;5025007;28;20302;-90
2022/05/21 04:11:07;;;;;;;10.10;5.10;;;;;;;18.27;100.00;96829.84;5044579;28;20229;-90
2022/05/21 04:13:34;;;;;;;9.73;5.80;;;;;;;18.13;100.00;96824.84;5036776;28;20221;-91
2022/05/21 04:16:01;;;;;;;12.77;5.03;;;;;;;18.12;100.00;96827.84;5034531;28;20337;-92
2022/05/21 04:18:29;;;;;;;8.27;5.87;;;;;;;18.08;100.00;96824.84;5029279;28;20237;-90
2022/05/21 04:20:56;;;;;;;10.13;5.90;;;;;;;18.01;100.00;96829.72;5038815;28;20211;-90
2022/05/21 04:23:23;;;;;;;11.70;6.50;;;;;;;18.01;100.00;96834.38;5036347;28;20215;-92
2022/05/21 04:25:51;;;;;;;8.53;5.70;;;;;;;18.03;100.00;96841.19;5031540;28;20207;-91
2022/05/21 04:28:20;;;;;;;6.10;5.27;;;;;;;18.00;100.00;96835.44;5044982;28;20234;-91
2022/05/21 04:30:47;;;;;;;11.20;6.30;;;;;;;18.03;100.00;96830.25;5042407;28;20224;-91
2022/05/21 04:33:14;;;;;;;12.60;5.67;;;;;;;17.99;100.00;96820.16;5030624;28;20207;-89
2022/05/21 04:38:22;;;;;;;10.50;5.63;;;;;;;18.20;100.00;96830.09;5034064;28;20298;-90
2022/05/21 04:40:50;;;;;;;7.97;5.03;;;;;;;18.24;100.00;96827.63;5036285;28;20206;-90
2022/05/21 04:43:17;;;;;;;8.23;5.60;;;;;;;18.19;100.00;96813.97;5027934;28;20223;-90
2022/05/21 04:45:45;;;;;;;8.30;6.33;;;;;;;18.28;100.00;96809.63;5050920;28;20242;-90
2022/05/21 04:48:14;;;;;;;12.03;5.23;;;;;;;18.21;100.00;96809.84;5031414;28;20230;-91
2022/05/21 04:50:42;;;;;;;9.47;6.17;;;;;;;18.21;100.00;96819.97;5021826;28;20250;-90
2022/05/21 04:53:09;;;;;;;9.53;6.13;;;;;;;18.18;100.00;96817.78;5023192;28;20234;-91
2022/05/21 04:55:37;;;;;;;11.07;5.97;;;;;;;18.22;100.00;96822.44;5032848;28;20301;-91
2022/05/21 04:58:05;;;;;;;10.93;6.03;;;;;;;18.27;100.00;96824.38;5043670;28;20199;-91
2022/05/21 05:00:33;;;;;;;9.27;5.67;;;;;;;18.38;100.00;96831.50;5042224;28;20222;-91
2022/05/21 05:03:02;;;;;;;8.70;5.10;;;;;;;18.37;100.00;96822.47;5042038;28;20211;-92
2022/05/21 05:05:30;;;;;;;9.27;5.17;;;;;;;18.39;100.00;96812.09;5044897;28;20252;-91
2022/05/21 05:07:57;;;;;;;8.57;5.83;;;;;;;18.47;100.00;96824.44;5043126;28;20285;-91
2022/05/21 05:10:24;;;;;;;9.30;5.63;;;;;;;18.52;100.00;96827.19;5034154;28;20297;-91
2022/05/21 05:12:52;;;;;;;8.37;5.70;;;;;;;18.48;100.00;96837.84;5050215;28;20211;-91
2022/05/21 05:18:03;;;;;;;8.23;5.57;;;;;;;18.40;100.00;96830.16;5096347;27;20573;-81
2022/05/21 05:20:31;;;;;;;10.47;5.90;;;;;;;18.36;100.00;96842.72;5087878;28;20232;-82
2022/05/21 05:22:58;;;;;;;7.33;6.37;;;;;;;18.34;100.00;96819.47;5082317;28;20197;-82
2022/05/21 05:25:26;;;;;;;9.23;5.80;;;;;;;18.37;100.00;96811.53;5073530;28;20201;-82
2022/05/21 05:27:54;;;;;;;10.83;6.53;;;;;;;18.36;100.00;96818.13;5076065;28;20193;-82
2022/05/21 05:30:23;;;;;;;8.30;5.67;;;;;;;18.37;100.00;96821.69;5075605;28;20215;-81
2022/05/21 05:32:51;;;;;;;11.73;6.17;;;;;;;18.44;100.00;96828.53;5074628;28;20200;-82
2022/05/21 05:35:19;;;;;;;12.77;6.40;;;;;;;18.45;100.00;96822.00;5075934;28;20216;-82
2022/05/21 05:37:47;;;;;;;11.20;6.00;;;;;;;18.52;100.00;96821.72;5075316;28;20213;-82
2022/05/21 05:40:18;;;;;;;7.27;5.20;;;;;;;18.50;100.00;96823.91;5087143;28;20207;-82
2022/05/21 05:42:47;;;;;;;10.63;5.43;;;;;;;18.51;100.00;96822.81;5104968;28;20235;-82
2022/05/21 05:45:16;;;;;;;10.43;5.87;;;;;;;18.57;100.00;96832.69;5078194;28;20197;-82
2022/05/21 05:47:43;;;;;;;10.13;6.27;;;;;;;18.61;100.00;96803.72;5080333;28;20262;-82
2022/05/21 05:50:11;;;;;;;7.57;5.50;;;;;;;18.69;100.00;96822.34;5081800;28;20197;-81
2022/05/21 05:52:39;;;;;;;11.10;5.83;;;;;;;18.68;100.00;96825.34;5091036;28;21749;-82
2022/05/21 05:55:07;;;;;;;6.45;5.63;;;;;;;18.70;100.00;96820.44;5078313;28;20205;-82
2022/05/21 05:57:34;;;;;;;6.27;5.67;;;;;;;18.70;100.00;96813.06;5073178;28;20347;-81
2022/05/21 06:00:02;;;;;;;8.37;6.20;;;;;;;18.74;100.00;96827.00;5074598;28;20201;-84
2022/05/21 06:05:24;;;;;;;8.10;6.20;;;;;;;18.63;100.00;96822.63;5054537;28;20222;-84
2022/05/21 06:07:55;;;;;;;10.20;6.50;;;;;;;18.54;100.00;96830.50;5030717;28;20209;-84
2022/05/21 06:10:25;;;;;;;16.30;6.80;;;;;;;18.55;100.00;96821.16;5048543;28;20256;-84
2022/05/21 06:12:52;;;;;;;8.10;6.50;;;;;;;18.49;100.00;96817.59;5050470;28;20205;-86
2022/05/21 06:15:20;;;;;;;8.70;6.43;;;;;;;18.56;100.00;96814.63;5048085;28;20207;-84
2022/05/21 06:17:49;;;;;;;14.13;6.67;;;;;;;18.51;100.00;96809.97;5030322;28;20252;-84
2022/05/21 06:20:18;;;;;;;11.53;6.40;;;;;;;18.59;100.00;96819.59;5029789;28;20205;-83
2022/05/21 06:22:48;;;;;;;8.93;6.20;;;;;;;18.67;100.00;96819.06;5033112;28;20290;-83
2022/05/21 06:25:20;;;;;;;10.97;6.47;;;;;;;18.66;100.00;96833.00;5036541;28;20218;-84
2022/05/21 06:27:49;;;;;;;8.57;6.63;;;;;;;18.69;100.00;96837.94;5027965;28;20203;-84
2022/05/21 06:30:18;;;;;;;8.90;6.30;;;;;;;18.74;100.00;96841.50;5023111;28;20226;-83
2022/05/21 06:32:46;;;;;;;10.30;6.00;;;;;;;18.80;100.00;96820.44;5021247;28;20217;-85
2022/05/21 06:35:14;;;;;;;8.40;6.60;;;;;;;18.73;100.00;96807.03;5031916;28;20226;-86
2022/05/21 06:37:42;;;;;;;10.33;6.97;;;;;;;18.86;100.00;96822.94;5020129;28;20237;-84
2022/05/21 06:40:11;;;;;;;12.93;7.33;;;;;;;18.86;100.00;96831.13;5022640;28;20203;-83
2022/05/21 06:42:40;;;;;;;13.00;6.40;;;;;;;18.84;100.00;96833.31;5020782;28;20235;-84
2022/05/21 06:45:09;;;;;;;10.10;6.37;;;;;;;18.83;100.00;96839.06;5022994;28;20207;-84
2022/05/21 06:47:36;;;;;;;8.07;6.07;;;;;;;18.88;100.00;96820.72;5026196;28;20310;-83
2022/05/21 06:50:05;;;;;;;8.67;5.83;;;;;;;18.94;100.00;96826.22;5025711;28;20207;-83
2022/05/21 06:52:33;;;;;;;10.83;6.10;;;;;;;19.01;100.00;96821.31;5018498;28;20207;-83
2022/05/21 06:55:00;;;;;;;11.77;5.93;;;;;;;19.06;100.00;96824.84;5013097;28;20207;-84
2022/05/21 06:57:28;;;;;;;8.70;5.87;;;;;;;19.07;100.00;96817.47;5016045;28;20324;-83
2022/05/21 06:59:57;;;;;;;11.03;6.57;;;;;;;19.19;100.00;96831.72;5017414;28;20230;-84
2022/05/21 07:02:25;;;;;;;10.33;6.90;;;;;;;19.25;100.00;96833.34;5012095;28;20203;-84
2022/05/21 07:07:44;;;;;;;10.73;6.43;;;;;;;19.17;100.00;96822.94;5022146;28;20211;-84
2022/05/21 07:10:17;;;;;;;11.57;7.80;;;;;;;19.16;100.00;96826.78;5018651;28;20207;-85
2022/05/21 07:12:44;;;;;;;10.37;6.67;;;;;;;19.11;100.00;96846.78;5015644;28;20297;-84
2022/05/21 07:15:14;;;;;;;11.20;7.30;;;;;;;19.08;100.00;96830.88;5027395;28;20207;-84
2022/05/21 07:17:42;;;;;;;10.83;7.13;;;;;;;19.09;100.00;96827.06;5021040;28;20250;-84
2022/05/21 07:20:11;;;;;;;13.10;7.43;;;;;;;19.16;100.00;96827.59;5024545;28;20203;-84
2022/05/21 07:22:42;;;;;;;10.23;6.23;;;;;;;19.26;100.00;96832.25;5021884;28;20298;-84
2022/05/21 07:25:10;;;;;;;9.27;6.27;;;;;;;19.28;100.00;96833.63;5030137;28;20210;-83
2022/05/21 07:27:37;;;;;;;11.40;7.10;;;;;;;19.26;100.00;96811.19;5015416;28;20207;-84
2022/05/21 07:30:05;;;;;;;8.77;5.60;;;;;;;19.41;100.00;96815.00;5022476;28;20214;-84
2022/05/21 07:32:34;;;;;;;10.60;6.63;;;;;;;19.55;100.00;96821.63;5020962;28;20210;-83
2022/05/21 07:35:08;;;;;;;9.93;6.67;;;;;;;19.61;100.00;96828.72;5030917;28;20222;-83
2022/05/21 07:37:36;;;;;;;8.40;6.00;;;;;;;19.58;100.00;96815.56;5021316;28;20261;-87
2022/05/21 07:40:03;;;;;;;18.17;6.20;;;;;;;19.55;100.00;96811.47;5019204;28;20206;-87
2022/05/21 07:42:31;;;;;;;8.53;5.83;;;;;;;19.62;100.00;96817.50;5016058;28;20211;-87
2022/05/21 07:44:59;;;;;;;9.03;5.50;;;;;;;19.57;100.00;96809.25;5021958;28;20201;-87
2022/05/21 07:47:26;;;;;;;11.43;6.33;;;;;;;19.73;100.00;96809.25;5024490;28;20219;-86
2022/05/21 07:49:56;;;;;;;13.07;5.90;;;;;;;20.03;100.00;96820.13;5038102;28;20211;-87
2022/05/21 07:52:24;;;;;;;9.70;6.07;;;;;;;20.25;100.00;96809.63;5020399;28;20212;-87
2022/05/21 07:54:51;;;;;;;8.93;5.80;;;;;;;20.36;100.00;96813.19;5020083;28;20307;-87
2022/05/21 07:57:18;;;;;;;7.30;5.05;;;;;;;20.61;100.00;96821.28;5026246;28;20310;-87
2022/05/21 07:59:45;;;;;;;7.38;5.35;;;;;;;20.71;100.00;96812.19;5016913;28;20213;-87
2022/05/21 08:02:15;;;;;;;10.43;5.32;;;;;;;20.80;100.00;96813.22;5025517;28;20287;-87
2022/05/21 08:04:42;;;;;;;10.57;5.05;;;;;;;20.86;100.00;96812.06;5042948;28;20195;-87
2022/05/21 08:07:11;;;;;;;12.32;5.35;;;;;;;20.86;100.00;96817.56;5024571;28;20229;-87
2022/05/21 08:09:39;;;;;;;9.98;5.10;;;;;;;20.84;100.00;96805.25;5028567;28;20203;-88
2022/05/21 08:12:08;;;;;;;7.80;5.13;;;;;;;20.90;100.00;96804.94;5014975;28;20256;-87
2022/05/21 08:14:35;;;;;;;8.65;4.88;;;;;;;21.21;100.00;96804.72;5020338;28;20215;-86
2022/05/21 08:17:03;;;;;;;10.43;5.78;;;;;;;21.12;100.00;96793.50;5027255;28;20330;-86
2022/05/21 08:19:30;;;;;;;7.60;5.20;;;;;;;21.15;100.00;96790.19;5022185;28;20358;-87
2022/05/21 08:27:28;;;;;;;7.78;5.38;;;;;;;21.44;100.00;96792.97;5025640;28;20199;-87
2022/05/21 08:29:56;;;;;;;10.98;6.20;;;;;;;21.63;100.00;96798.56;5015518;28;20265;-88
2022/05/21 08:32:23;;;;;;;10.35;5.90;;;;;;;21.76;100.00;96792.41;5027558;28;20211;-87
2022/05/21 08:34:52;;;;;;;9.45;5.45;;;;;;;21.86;100.00;96789.56;5019791;28;20206;-87
2022/05/21 08:37:20;;;;;;;11.15;6.05;;;;;;;21.86;100.00;96782.09;5021160;28;20269;-86
2022/05/21 08:39:49;;;;;;;9.20;5.47;;;;;;;21.79;100.00;96789.88;5024141;28;20207;-87
2022/05/21 08:42:20;;;;;;;8.32;6.28;;;;;;;21.98;100.00;96780.91;5022957;28;20272;-87
2022/05/21 08:44:52;;;;;;;13.07;6.15;;;;;;;22.02;100.00;96782.00;5025613;28;20274;-87
2022/05/21 08:47:23;;;;;;;13.27;5.55;;;;;;;22.24;100.00;96779.50;5024698;28;20219;-87
2022/05/21 08:49:56;;;;;;;10.38;5.68;;;;;;;22.54;100.00;96781.06;5020560;28;20218;-88
2022/05/21 08:52:29;;;;;;;8.80;5.15;;;;;;;22.50;99.52;96764.31;5015660;28;20285;-88
2022/05/21 08:55:01;;;;;;;10.00;5.60;;;;;;;22.57;97.36;96767.50;5042958;28;20226;-88
2022/05/21 08:57:34;;;;;;;8.98;5.05;;;;;;;22.80;96.25;96773.25;5014349;28;20221;-88
2022/05/21 09:00:05;;;;;;;10.57;5.43;;;;;;;22.97;95.53;96768.88;5026995;28;20217;-87
2022/05/21 09:02:35;;;;;;;8.23;5.45;;;;;;;23.06;95.46;96759.91;5042623;28;20288;-87
2022/05/21 09:05:04;;;;;;;8.23;4.93;;;;;;;23.20;91.67;96756.13;5027690;28;20222;-87
2022/05/21 09:07:43;;;;;;;9.57;5.10;;;;;;;23.27;90.78;96751.03;5022307;28;20304;-88
2022/05/21 09:10:29;;;;;;;7.20;4.60;;;;;;;23.22;89.21;96751.09;5021501;28;20230;-86
2022/05/21 09:13:03;;;;;;;9.07;5.43;;;;;;;23.39;90.60;96734.03;5012809;28;20201;-88
2022/05/21 09:18:15;;;;;;;10.05;5.40;;;;;;;23.77;86.86;96738.28;5026945;28;20222;-88
2022/05/21 09:20:50;;;;;;;5.35;4.60;;;;;;;23.84;86.83;96734.31;5031490;28;20203;-87
2022/05/21 09:23:17;;;;;;;10.48;5.38;;;;;;;23.81;88.79;96726.66;5021059;28;20222;-88
2022/05/21 09:25:46;;;;;;;8.07;5.10;;;;;;;23.79;87.65;96738.00;5022922;28;20342;-88
2022/05/21 09:28:22;;;;;;;10.45;5.30;;;;;;;23.78;86.79;96728.09;5029043;28;20198;-89
2022/05/21 09:30:58;;;;;;;9.43;5.72;;;;;;;23.93;85.71;96724.19;5008842;28;20482;-88
2022/05/21 09:33:27;;;;;;;11.63;5.72;;;;;;;24.10;85.69;96729.91;5024175;28;20206;-88
2022/05/21 09:35:56;;;;;;;9.63;5.20;;;;;;;;;;5025088;28;20282;-88
2022/05/21 09:38:26;;;;;;;9.75;5.20;;;;;;;24.38;83.13;96708.66;5030828;28;20230;-88
2022/05/21 09:41:11;;;;;;;7.60;5.47;;;;;;;24.31;83.05;96711.03;5023845;28;20203;-88
2022/05/21 09:46:27;;;;;;;9.15;6.75;;;;;;;24.76;82.23;96706.41;5023905;28;20223;-87
2022/05/21 09:49:12;;;;;;;7.85;5.32;;;;;;;24.93;80.32;96705.75;5026889;28;20195;-88
2022/05/21 09:51:40;;;;;;;7.63;5.00;;;;;;;25.03;79.66;96697.22;5025759;28;20214;-88
2022/05/21 09:54:20;;;;;;;10.30;5.65;;;;;;;25.10;80.67;96692.06;5012837;28;20211;-87
2022/05/21 09:56:52;;;;;;;12.05;5.78;;;;;;;25.04;79.39;96687.78;5026813;28;20305;-87
2022/05/21 09:59:22;;;;;;;7.43;5.10;;;;;;;24.84;81.17;96687.13;5022504;28;20202;-88
2022/05/21 10:01:53;;;;;;;8.80;5.47;;;;;;;24.91;81.18;96688.66;5025149;28;20304;-87
2022/05/21 10:04:27;;;;;;;6.60;5.05;;;;;;;24.86;81.22;96678.53;5025420;28;20205;-87
2022/05/21 10:06:59;;;;;;;10.55;5.65;;;;;;;24.99;81.98;96676.88;5029579;28;20221;-88
2022/05/21 10:12:22;;;;;;;8.52;5.18;;;;;;;25.20;79.66;96680.75;5015935;28;20219;-88
2022/05/21 10:14:54;;;;;;;7.13;4.80;;;;;;;25.17;78.11;96673.94;5036548;28;20242;-87
2022/05/21 10:17:29;;;;;;;8.95;4.93;;;;;;;25.04;80.81;96661.00;5026548;28;20239;-88
2022/05/21 10:20:01;;;;;;;6.68;4.88;;;;;;;25.09;78.95;96663.63;5016916;28;20211;-87
2022/05/21 10:22:39;;;;;;;12.43;5.93;;;;;;;25.25;77.41;96658.53;5017558;28;20203;-86
2022/05/21 10:25:09;;;;;;;6.03;5.22;;;;;;;25.09;77.54;96649.00;5039072;28;20210;-88
2022/05/21 10:27:53;;;;;;;7.75;5.85;;;;;;;25.19;79.63;96645.94;5027013;28;20227;-88
2022/05/21 10:30:28;;;;;;;9.02;5.80;;;;;;;25.30;79.66;96647.31;5029543;28;20207;-87
2022/05/21 10:33:27;;;;;;;12.27;5.47;;;;;;;25.35;78.64;96644.41;5019288;28;20206;-87
2022/05/21 10:36:17;;;;;;;7.28;5.50;;;;;;;25.42;78.72;96638.44;5019579;28;20210;-87
2022/05/21 10:39:06;;;;;;;9.65;5.38;;;;;;;25.43;77.61;96637.31;5016600;28;20342;-88
2022/05/21 10:41:52;;;;;;;8.73;5.43;;;;;;;25.43;77.87;96629.84;5020532;28;20210;-88
2022/05/21 10:44:33;;;;;;;9.57;5.97;;;;;;;25.41;77.99;96632.09;5029961;28;20207;-87
2022/05/21 10:47:03;;;;;;;6.88;5.57;;;;;;;25.37;75.72;96614.50;5016797;28;20265;-87
2022/05/21 10:50:12;;;;;;;8.90;5.88;;;;;;;25.17;76.66;96626.13;5039964;28;20199;-88
2022/05/21 10:52:56;;;;;;;5.88;5.07;;;;;;;25.26;76.85;96619.50;5045917;28;20207;-88
2022/05/21 10:55:29;;;;;;;7.68;5.60;;;;;;;25.50;76.15;96621.91;5021320;28;20207;-86
2022/05/21 10:58:29;;;;;;;9.93;5.20;;;;;;;25.63;72.46;96611.88;5024900;28;20296;-88
2022/05/21 11:01:10;;;;;;;6.63;5.00;;;;;;;25.42;73.02;96608.84;5012999;28;20225;-87
2022/05/21 11:04:11;;;;;;;8.43;5.70;;;;;;;25.58;75.09;96615.59;5015642;28;20455;-86
2022/05/21 11:07:22;;;;;;;9.98;5.57;;;;;;;25.63;75.36;96609.94;5010734;28;20462;-88
2022/05/21 11:09:57;;;;;;;9.35;6.05;;;;;;;25.54;74.97;96602.69;4969051;28;20281;-87
2022/05/21 11:12:31;;;;;;;8.57;6.03;;;;;;;25.53;73.86;96607.41;4963497;28;20247;-87
2022/05/21 11:15:06;;;;;;;6.50;5.78;;;;;;;25.50;75.34;96602.53;5011477;28;20218;-87
2022/05/21 11:17:41;;;;;;;8.52;5.80;;;;;;;25.52;75.87;96605.78;5023626;28;20276;-87
2022/05/21 11:20:17;;;;;;;6.55;5.60;;;;;;;25.52;74.56;96603.00;5034147;28;20207;-87
2022/05/21 11:22:53;;;;;;;12.02;5.97;;;;;;;25.77;74.09;96597.94;5018663;28;20207;-87
2022/05/21 11:25:24;;;;;;;8.65;5.47;;;;;;;25.69;74.41;96601.50;5025520;28;20299;-86
2022/05/21 11:27:57;;;;;;;7.03;5.10;;;;;;;25.59;73.86;96597.91;5025481;28;20241;-87
2022/05/21 11:30:24;;;;;;;7.05;5.80;;;;;;;25.60;74.00;96607.78;5022357;28;20207;-87
2022/05/21 11:38:34;;;;;;;10.20;6.40;;;;;;;25.62;75.09;96590.88;5025707;28;20238;-87
2022/05/21 11:46:59;;;;;;;10.55;6.47;;;;;;;25.58;74.61;96603.72;5013412;28;20206;-87
2022/05/21 11:49:45;;;;;;;10.95;6.70;;;;;;;25.54;73.98;96594.41;5020678;28;20207;-87
2022/05/21 11:52:50;;;;;;;6.63;6.00;;;;;;;25.66;74.82;96593.84;5017120;28;20272;-87
2022/05/21 11:55:22;;;;;;;9.15;6.30;;;;;;;25.82;73.55;96586.72;5012255;28;20325;-87
2022/05/21 11:57:52;;;;;;;9.88;6.10;;;;;;;25.60;73.51;96584.88;5021008;28;20226;-87
2022/05/21 12:00:43;;;;;;;11.10;6.65;;;;;;;25.78;74.05;96588.47;5020462;28;20199;-87
2022/05/21 12:03:16;;;;;;;7.63;6.15;;;;;;;25.67;73.50;96589.94;5015585;28;20213;-88
2022/05/21 12:06:09;;;;;;;6.65;6.03;;;;;;;25.70;74.33;96578.22;5016704;28;20217;-87
2022/05/21 12:08:46;;;;;;;6.57;5.95;;;;;;;25.75;71.89;96581.66;5021672;28;20231;-86
2022/05/21 12:11:43;;;;;;;11.05;6.22;;;;;;;25.83;72.32;96577.28;5018649;28;20218;-87
2022/05/21 12:14:25;;;;;;;7.80;6.05;;;;;;;25.90;71.43;96580.38;5027231;28;20207;-87
2022/05/21 12:16:56;;;;;;;7.93;5.57;;;;;;;25.58;72.49;96565.00;5042029;28;20231;-87
2022/05/21 12:20:06;;;;;;;6.55;5.57;;;;;;;25.64;72.46;96580.31;5031120;28;20222;-87
2022/05/21 12:22:56;;;;;;;7.38;5.65;;;;;;;25.43;74.45;96573.72;4981027;28;20210;-87
2022/05/21 12:25:58;;;;;;;10.48;6.50;;;;;;;25.57;73.26;96575.25;5024768;28;20207;-87
2022/05/21 12:28:32;;;;;;;7.45;5.57;;;;;;;25.80;71.86;96575.16;5024295;28;20225;-87
2022/05/21 12:31:01;;;;;;;10.23;6.90;;;;;;;25.56;72.78;96567.25;5025516;28;20211;-87
2022/05/21 12:33:40;;;;;;;6.80;5.60;;;;;;;25.57;73.56;96564.19;5019031;28;20273;-86